sensor_id;sensor_type;location;lat;lon;timestamp;temperature;humidity
1468;DHT22;727;48.892;9.544;2023-01-26T00:02:20;1.70;99.90
1468;DHT22;727;48.892;9.544;2023-01-26T00:04:46;1.70;99.90
1468;DHT22;727;48.892;9.544;2023-01-26T00:07:15;1.70;99.90
1468;DHT22;727;48.892;9.544;2023-01-26T00:09:41;1.60;99.90
1468;DHT22;727;48.892;9.544;2023-01-26T00:12:08;1.60;99.90
1468;DHT22;727;48.892;9.544;2023-01-26T00:14:35;1.50;99.90
1468;DHT22;727;48.892;9.544;2023-01-26T00:17:20;1.60;99.90
1468;DHT22;727;48.892;9.544;2023-01-26T00:19:54;1.50;99.90
1468;DHT22;727;48.892;9.544;2023-01-26T00:22:24;1.50;99.90
1468;DHT22;727;48.892;9.544;2023-01-26T00:24:51;1.50;99.90
1468;DHT22;727;48.892;9.544;2023-01-26T00:27:18;1.50;99.90
1468;DHT22;727;48.892;9.544;2023-01-26T00:29:44;1.50;99.90
1468;DHT22;727;48.892;9.544;2023-01-26T00:32:11;1.50;99.90
1468;DHT22;727;48.892;9.544;2023-01-26T00:34:38;1.50;99.90
1468;DHT22;727;48.892;9.544;2023-01-26T00:37:05;1.50;99.90
1468;DHT22;727;48.892;9.544;2023-01-26T00:39:33;1.60;99.90
1468;DHT22;727;48.892;9.544;2023-01-26T00:42:00;1.70;99.90
1468;DHT22;727;48.892;9.544;2023-01-26T00:44:35;1.80;99.90
1468;DHT22;727;48.892;9.544;2023-01-26T00:47:02;1.60;99.90
1468;DHT22;727;48.892;9.544;2023-01-26T00:49:29;1.60;99.90
1468;DHT22;727;48.892;9.544;2023-01-26T00:51:56;1.60;99.90
1468;DHT22;727;48.892;9.544;2023-01-26T00:54:23;1.60;99.90
1468;DHT22;727;48.892;9.544;2023-01-26T00:56:52;1.60;99.90
1468;DHT22;727;48.892;9.544;2023-01-26T00:59:19;1.60;99.90
1468;DHT22;727;48.892;9.544;2023-01-26T01:01:46;1.60;99.90
1468;DHT22;727;48.892;9.544;2023-01-26T01:04:13;1.60;99.90
1468;DHT22;727;48.892;9.544;2023-01-26T01:06:40;1.60;99.90
1468;DHT22;727;48.892;9.544;2023-01-26T01:09:07;1.60;99.90
1468;DHT22;727;48.892;9.544;2023-01-26T01:11:34;1.60;99.90
1468;DHT22;727;48.892;9.544;2023-01-26T01:14:02;1.70;99.90
1468;DHT22;727;48.892;9.544;2023-01-26T01:16:29;1.80;99.90
1468;DHT22;727;48.892;9.544;2023-01-26T01:18:56;1.80;99.90
1468;DHT22;727;48.892;9.544;2023-01-26T01:21:24;1.80;99.90
1468;DHT22;727;48.892;9.544;2023-01-26T01:23:51;1.80;99.90
1468;DHT22;727;48.892;9.544;2023-01-26T01:26:18;1.80;99.90
1468;DHT22;727;48.892;9.544;2023-01-26T01:28:45;1.70;99.90
1468;DHT22;727;48.892;9.544;2023-01-26T01:31:15;1.70;99.90
1468;DHT22;727;48.892;9.544;2023-01-26T01:33:42;1.70;99.90
1468;DHT22;727;48.892;9.544;2023-01-26T01:36:11;1.80;99.90
1468;DHT22;727;48.892;9.544;2023-01-26T01:38:39;1.70;99.90
1468;DHT22;727;48.892;9.544;2023-01-26T01:41:06;1.70;99.90
1468;DHT22;727;48.892;9.544;2023-01-26T01:43:34;1.80;99.90
1468;DHT22;727;48.892;9.544;2023-01-26T01:46:02;1.80;99.90
1468;DHT22;727;48.892;9.544;2023-01-26T01:48:39;1.90;99.90
1468;DHT22;727;48.892;9.544;2023-01-26T01:51:14;1.80;99.90
1468;DHT22;727;48.892;9.544;2023-01-26T01:53:44;1.70;99.90
1468;DHT22;727;48.892;9.544;2023-01-26T01:56:15;1.70;99.90
1468;DHT22;727;48.892;9.544;2023-01-26T01:58:47;1.60;99.90
1468;DHT22;727;48.892;9.544;2023-01-26T02:01:15;1.60;99.90
1468;DHT22;727;48.892;9.544;2023-01-26T02:03:45;1.60;99.90
1468;DHT22;727;48.892;9.544;2023-01-26T02:06:14;1.50;99.90
1468;DHT22;727;48.892;9.544;2023-01-26T02:08:44;1.60;99.90
1468;DHT22;727;48.892;9.544;2023-01-26T02:11:15;1.50;99.90
1468;DHT22;727;48.892;9.544;2023-01-26T02:13:46;1.60;99.90
1468;DHT22;727;48.892;9.544;2023-01-26T02:16:13;1.60;99.90
1468;DHT22;727;48.892;9.544;2023-01-26T02:18:40;1.60;99.90
1468;DHT22;727;48.892;9.544;2023-01-26T02:21:10;1.50;99.90
1468;DHT22;727;48.892;9.544;2023-01-26T02:23:48;1.60;99.90
1468;DHT22;727;48.892;9.544;2023-01-26T02:26:19;1.60;99.90
1468;DHT22;727;48.892;9.544;2023-01-26T02:28:47;1.60;99.90
1468;DHT22;727;48.892;9.544;2023-01-26T02:31:14;1.60;99.90
1468;DHT22;727;48.892;9.544;2023-01-26T02:33:42;1.50;99.90
1468;DHT22;727;48.892;9.544;2023-01-26T02:36:17;1.50;99.90
1468;DHT22;727;48.892;9.544;2023-01-26T02:38:48;1.50;99.90
1468;DHT22;727;48.892;9.544;2023-01-26T02:41:18;1.50;99.90
1468;DHT22;727;48.892;9.544;2023-01-26T02:43:59;1.40;99.90
1468;DHT22;727;48.892;9.544;2023-01-26T02:46:26;1.40;99.90
1468;DHT22;727;48.892;9.544;2023-01-26T02:48:53;1.40;99.90
1468;DHT22;727;48.892;9.544;2023-01-26T02:51:37;1.40;99.90
1468;DHT22;727;48.892;9.544;2023-01-26T02:54:04;1.50;99.90
1468;DHT22;727;48.892;9.544;2023-01-26T02:56:32;1.50;99.90
1468;DHT22;727;48.892;9.544;2023-01-26T02:59:04;1.50;99.90
1468;DHT22;727;48.892;9.544;2023-01-26T03:01:30;1.70;99.90
1468;DHT22;727;48.892;9.544;2023-01-26T03:03:57;1.60;99.90
1468;DHT22;727;48.892;9.544;2023-01-26T03:06:24;1.70;99.90
1468;DHT22;727;48.892;9.544;2023-01-26T03:08:51;1.70;99.90
1468;DHT22;727;48.892;9.544;2023-01-26T03:11:17;1.60;99.90
1468;DHT22;727;48.892;9.544;2023-01-26T03:13:48;1.60;99.90
1468;DHT22;727;48.892;9.544;2023-01-26T03:16:15;1.50;99.90
1468;DHT22;727;48.892;9.544;2023-01-26T03:18:42;1.50;99.90
1468;DHT22;727;48.892;9.544;2023-01-26T03:21:27;1.50;99.90
1468;DHT22;727;48.892;9.544;2023-01-26T03:24:11;1.50;99.90
1468;DHT22;727;48.892;9.544;2023-01-26T03:26:56;1.50;99.90
1468;DHT22;727;48.892;9.544;2023-01-26T03:29:41;1.50;99.90
1468;DHT22;727;48.892;9.544;2023-01-26T03:32:08;1.50;99.90
1468;DHT22;727;48.892;9.544;2023-01-26T03:34:35;1.50;99.90
1468;DHT22;727;48.892;9.544;2023-01-26T03:37:02;1.50;99.90
1468;DHT22;727;48.892;9.544;2023-01-26T03:39:29;1.50;99.90
1468;DHT22;727;48.892;9.544;2023-01-26T03:42:13;1.50;99.90
1468;DHT22;727;48.892;9.544;2023-01-26T03:44:59;1.50;99.90
1468;DHT22;727;48.892;9.544;2023-01-26T03:47:43;1.60;99.90
1468;DHT22;727;48.892;9.544;2023-01-26T03:50:27;1.50;99.90
1468;DHT22;727;48.892;9.544;2023-01-26T03:53:13;1.60;99.90
1468;DHT22;727;48.892;9.544;2023-01-26T03:55:57;1.60;99.90
1468;DHT22;727;48.892;9.544;2023-01-26T03:58:47;1.50;99.90
1468;DHT22;727;48.892;9.544;2023-01-26T04:01:16;1.50;99.90
1468;DHT22;727;48.892;9.544;2023-01-26T04:03:46;1.50;99.90
1468;DHT22;727;48.892;9.544;2023-01-26T04:06:31;1.40;99.90
1468;DHT22;727;48.892;9.544;2023-01-26T04:09:15;1.40;99.90
1468;DHT22;727;48.892;9.544;2023-01-26T04:11:43;1.40;99.90
1468;DHT22;727;48.892;9.544;2023-01-26T04:14:10;1.40;99.90
1468;DHT22;727;48.892;9.544;2023-01-26T04:16:57;1.40;99.90
1468;DHT22;727;48.892;9.544;2023-01-26T04:19:41;1.40;99.90
1468;DHT22;727;48.892;9.544;2023-01-26T04:22:25;1.40;99.90
1468;DHT22;727;48.892;9.544;2023-01-26T04:24:52;1.40;99.90
1468;DHT22;727;48.892;9.544;2023-01-26T04:27:19;1.30;99.90
1468;DHT22;727;48.892;9.544;2023-01-26T04:29:46;1.30;99.90
1468;DHT22;727;48.892;9.544;2023-01-26T04:32:14;1.40;99.90
1468;DHT22;727;48.892;9.544;2023-01-26T04:34:41;1.40;99.90
1468;DHT22;727;48.892;9.544;2023-01-26T04:37:08;1.40;99.90
1468;DHT22;727;48.892;9.544;2023-01-26T04:39:35;1.40;99.90
1468;DHT22;727;48.892;9.544;2023-01-26T04:42:02;1.40;99.90
1468;DHT22;727;48.892;9.544;2023-01-26T04:44:29;1.50;99.90
1468;DHT22;727;48.892;9.544;2023-01-26T04:46:56;1.50;99.90
1468;DHT22;727;48.892;9.544;2023-01-26T04:49:24;1.40;99.90
1468;DHT22;727;48.892;9.544;2023-01-26T04:51:51;1.50;99.90
1468;DHT22;727;48.892;9.544;2023-01-26T04:54:18;1.30;99.90
1468;DHT22;727;48.892;9.544;2023-01-26T04:56:45;1.30;99.90
1468;DHT22;727;48.892;9.544;2023-01-26T04:59:12;1.30;99.90
1468;DHT22;727;48.892;9.544;2023-01-26T05:01:39;1.30;99.90
1468;DHT22;727;48.892;9.544;2023-01-26T05:04:05;1.30;99.90
1468;DHT22;727;48.892;9.544;2023-01-26T05:06:34;1.30;99.90
1468;DHT22;727;48.892;9.544;2023-01-26T05:09:01;1.20;99.90
1468;DHT22;727;48.892;9.544;2023-01-26T05:11:27;1.20;99.90
1468;DHT22;727;48.892;9.544;2023-01-26T05:13:54;1.30;99.90
1468;DHT22;727;48.892;9.544;2023-01-26T05:16:21;1.30;99.90
1468;DHT22;727;48.892;9.544;2023-01-26T05:18:50;1.30;99.90
1468;DHT22;727;48.892;9.544;2023-01-26T05:21:16;1.30;99.90
1468;DHT22;727;48.892;9.544;2023-01-26T05:23:45;1.30;99.90
1468;DHT22;727;48.892;9.544;2023-01-26T05:26:12;1.30;99.90
1468;DHT22;727;48.892;9.544;2023-01-26T05:28:38;1.30;99.90
1468;DHT22;727;48.892;9.544;2023-01-26T05:31:05;1.30;99.90
1468;DHT22;727;48.892;9.544;2023-01-26T05:33:32;1.30;99.90
1468;DHT22;727;48.892;9.544;2023-01-26T05:36:02;1.20;99.90
1468;DHT22;727;48.892;9.544;2023-01-26T05:38:30;1.20;99.90
1468;DHT22;727;48.892;9.544;2023-01-26T05:40:58;1.20;99.90
1468;DHT22;727;48.892;9.544;2023-01-26T05:43:25;1.20;99.90
1468;DHT22;727;48.892;9.544;2023-01-26T05:45:52;1.20;99.90
1468;DHT22;727;48.892;9.544;2023-01-26T05:48:19;1.30;99.90
1468;DHT22;727;48.892;9.544;2023-01-26T05:50:47;1.30;99.90
1468;DHT22;727;48.892;9.544;2023-01-26T05:53:14;1.20;99.90
1468;DHT22;727;48.892;9.544;2023-01-26T05:55:42;1.20;99.90
1468;DHT22;727;48.892;9.544;2023-01-26T05:58:10;1.30;99.90
1468;DHT22;727;48.892;9.544;2023-01-26T06:00:37;1.30;99.90
1468;DHT22;727;48.892;9.544;2023-01-26T06:03:03;1.30;99.90
1468;DHT22;727;48.892;9.544;2023-01-26T06:05:30;1.30;99.90
1468;DHT22;727;48.892;9.544;2023-01-26T06:07:57;1.20;99.90
1468;DHT22;727;48.892;9.544;2023-01-26T06:10:24;1.30;99.90
1468;DHT22;727;48.892;9.544;2023-01-26T06:12:51;1.30;99.90
1468;DHT22;727;48.892;9.544;2023-01-26T06:15:19;1.30;99.90
1468;DHT22;727;48.892;9.544;2023-01-26T06:17:47;1.30;99.90
1468;DHT22;727;48.892;9.544;2023-01-26T06:20:13;1.20;99.90
1468;DHT22;727;48.892;9.544;2023-01-26T06:22:40;1.20;99.90
1468;DHT22;727;48.892;9.544;2023-01-26T06:25:08;1.20;99.90
1468;DHT22;727;48.892;9.544;2023-01-26T06:27:34;1.20;99.90
1468;DHT22;727;48.892;9.544;2023-01-26T06:30:07;1.10;99.90
1468;DHT22;727;48.892;9.544;2023-01-26T06:32:36;1.10;99.90
1468;DHT22;727;48.892;9.544;2023-01-26T06:35:03;1.20;99.90
1468;DHT22;727;48.892;9.544;2023-01-26T06:37:31;1.30;99.90
1468;DHT22;727;48.892;9.544;2023-01-26T06:39:59;1.20;99.90
1468;DHT22;727;48.892;9.544;2023-01-26T06:42:25;1.20;99.90
1468;DHT22;727;48.892;9.544;2023-01-26T06:44:52;1.10;99.90
1468;DHT22;727;48.892;9.544;2023-01-26T06:47:19;1.10;99.90
1468;DHT22;727;48.892;9.544;2023-01-26T06:49:47;1.10;99.90
1468;DHT22;727;48.892;9.544;2023-01-26T06:52:29;1.10;99.90
1468;DHT22;727;48.892;9.544;2023-01-26T06:54:58;1.00;99.90
1468;DHT22;727;48.892;9.544;2023-01-26T06:57:25;1.00;99.90
1468;DHT22;727;48.892;9.544;2023-01-26T06:59:52;1.00;99.90
1468;DHT22;727;48.892;9.544;2023-01-26T07:02:20;1.00;99.90
1468;DHT22;727;48.892;9.544;2023-01-26T07:04:49;1.00;99.90
1468;DHT22;727;48.892;9.544;2023-01-26T07:07:16;1.00;99.90
1468;DHT22;727;48.892;9.544;2023-01-26T07:09:43;1.00;99.90
1468;DHT22;727;48.892;9.544;2023-01-26T07:12:09;1.00;99.90
1468;DHT22;727;48.892;9.544;2023-01-26T07:14:36;1.00;99.90
1468;DHT22;727;48.892;9.544;2023-01-26T07:17:03;1.00;99.90
1468;DHT22;727;48.892;9.544;2023-01-26T07:19:30;1.00;99.90
1468;DHT22;727;48.892;9.544;2023-01-26T07:22:00;1.00;99.90
1468;DHT22;727;48.892;9.544;2023-01-26T07:24:27;1.00;99.90
1468;DHT22;727;48.892;9.544;2023-01-26T07:26:54;1.00;99.90
1468;DHT22;727;48.892;9.544;2023-01-26T07:29:21;1.10;99.90
1468;DHT22;727;48.892;9.544;2023-01-26T07:31:48;1.10;99.90
1468;DHT22;727;48.892;9.544;2023-01-26T07:34:15;1.00;99.90
1468;DHT22;727;48.892;9.544;2023-01-26T07:36:42;1.20;99.90
1468;DHT22;727;48.892;9.544;2023-01-26T07:39:11;1.10;99.90
1468;DHT22;727;48.892;9.544;2023-01-26T07:41:38;1.10;99.90
1468;DHT22;727;48.892;9.544;2023-01-26T07:44:08;1.00;99.90
1468;DHT22;727;48.892;9.544;2023-01-26T07:46:35;1.00;99.90
1468;DHT22;727;48.892;9.544;2023-01-26T07:49:02;1.00;99.90
1468;DHT22;727;48.892;9.544;2023-01-26T07:51:29;1.00;99.90
1468;DHT22;727;48.892;9.544;2023-01-26T07:53:55;1.00;99.90
1468;DHT22;727;48.892;9.544;2023-01-26T07:56:24;1.10;99.90
1468;DHT22;727;48.892;9.544;2023-01-26T07:58:52;1.10;99.90
1468;DHT22;727;48.892;9.544;2023-01-26T08:01:19;1.20;99.90
1468;DHT22;727;48.892;9.544;2023-01-26T08:03:48;1.10;99.90
1468;DHT22;727;48.892;9.544;2023-01-26T08:06:16;1.20;99.90
1468;DHT22;727;48.892;9.544;2023-01-26T08:08:43;1.20;99.90
1468;DHT22;727;48.892;9.544;2023-01-26T08:11:11;1.30;99.90
1468;DHT22;727;48.892;9.544;2023-01-26T08:13:39;1.20;99.90
1468;DHT22;727;48.892;9.544;2023-01-26T08:16:08;1.20;99.90
1468;DHT22;727;48.892;9.544;2023-01-26T08:18:36;1.30;99.90
1468;DHT22;727;48.892;9.544;2023-01-26T08:21:04;1.30;99.90
1468;DHT22;727;48.892;9.544;2023-01-26T08:23:31;1.30;99.90
1468;DHT22;727;48.892;9.544;2023-01-26T08:25:59;1.30;99.90
1468;DHT22;727;48.892;9.544;2023-01-26T08:28:26;1.30;99.90
1468;DHT22;727;48.892;9.544;2023-01-26T08:30:54;1.30;99.90
1468;DHT22;727;48.892;9.544;2023-01-26T08:33:22;1.40;99.90
1468;DHT22;727;48.892;9.544;2023-01-26T08:35:48;1.40;99.90
1468;DHT22;727;48.892;9.544;2023-01-26T08:38:15;1.40;99.90
1468;DHT22;727;48.892;9.544;2023-01-26T08:40:42;1.40;99.90
1468;DHT22;727;48.892;9.544;2023-01-26T08:43:09;1.40;99.90
1468;DHT22;727;48.892;9.544;2023-01-26T08:45:35;1.40;99.90
1468;DHT22;727;48.892;9.544;2023-01-26T08:48:04;1.40;99.90
1468;DHT22;727;48.892;9.544;2023-01-26T08:50:31;1.40;99.90
1468;DHT22;727;48.892;9.544;2023-01-26T08:52:58;1.50;99.90
1468;DHT22;727;48.892;9.544;2023-01-26T08:55:25;1.50;99.90
1468;DHT22;727;48.892;9.544;2023-01-26T08:57:53;1.40;99.90
1468;DHT22;727;48.892;9.544;2023-01-26T09:00:22;1.40;99.90
1468;DHT22;727;48.892;9.544;2023-01-26T09:02:49;1.50;99.90
1468;DHT22;727;48.892;9.544;2023-01-26T09:05:17;1.50;99.90
1468;DHT22;727;48.892;9.544;2023-01-26T09:07:44;1.60;99.90
1468;DHT22;727;48.892;9.544;2023-01-26T09:10:11;1.60;99.90
1468;DHT22;727;48.892;9.544;2023-01-26T09:12:38;1.70;99.90
1468;DHT22;727;48.892;9.544;2023-01-26T09:15:06;1.60;99.90
1468;DHT22;727;48.892;9.544;2023-01-26T09:17:33;1.70;99.90
1468;DHT22;727;48.892;9.544;2023-01-26T09:20:00;1.70;99.90
1468;DHT22;727;48.892;9.544;2023-01-26T09:22:28;1.60;99.90
1468;DHT22;727;48.892;9.544;2023-01-26T09:24:55;1.70;99.90
1468;DHT22;727;48.892;9.544;2023-01-26T09:27:22;1.70;99.90
1468;DHT22;727;48.892;9.544;2023-01-26T09:29:49;1.80;99.90
1468;DHT22;727;48.892;9.544;2023-01-26T09:32:17;1.80;99.90
1468;DHT22;727;48.892;9.544;2023-01-26T09:34:43;1.70;99.90
1468;DHT22;727;48.892;9.544;2023-01-26T09:37:10;1.80;99.90
1468;DHT22;727;48.892;9.544;2023-01-26T09:39:38;1.80;99.90
1468;DHT22;727;48.892;9.544;2023-01-26T09:42:31;1.80;99.90
1468;DHT22;727;48.892;9.544;2023-01-26T09:47:58;1.80;99.90
1468;DHT22;727;48.892;9.544;2023-01-26T09:50:30;1.70;99.90
1468;DHT22;727;48.892;9.544;2023-01-26T09:53:04;1.70;99.90
1468;DHT22;727;48.892;9.544;2023-01-26T09:55:34;1.60;99.90
1468;DHT22;727;48.892;9.544;2023-01-26T09:58:04;1.70;99.90
1468;DHT22;727;48.892;9.544;2023-01-26T10:00:34;1.60;99.90
1468;DHT22;727;48.892;9.544;2023-01-26T10:03:10;1.60;99.90
1468;DHT22;727;48.892;9.544;2023-01-26T10:05:43;1.50;99.90
1468;DHT22;727;48.892;9.544;2023-01-26T10:08:12;1.50;99.90
1468;DHT22;727;48.892;9.544;2023-01-26T10:10:46;1.60;99.90
1468;DHT22;727;48.892;9.544;2023-01-26T10:13:15;1.50;99.90
1468;DHT22;727;48.892;9.544;2023-01-26T10:15:48;1.40;99.90
1468;DHT22;727;48.892;9.544;2023-01-26T10:18:20;1.40;99.90
1468;DHT22;727;48.892;9.544;2023-01-26T10:20:51;1.40;99.90
1468;DHT22;727;48.892;9.544;2023-01-26T10:23:21;1.40;99.90
1468;DHT22;727;48.892;9.544;2023-01-26T10:25:51;1.50;99.90
1468;DHT22;727;48.892;9.544;2023-01-26T10:28:27;1.50;99.90
1468;DHT22;727;48.892;9.544;2023-01-26T10:30:54;1.50;99.90
1468;DHT22;727;48.892;9.544;2023-01-26T10:33:28;1.50;99.90
1468;DHT22;727;48.892;9.544;2023-01-26T10:35:57;1.50;99.90
1468;DHT22;727;48.892;9.544;2023-01-26T10:38:42;1.50;99.90
1468;DHT22;727;48.892;9.544;2023-01-26T10:41:25;1.50;99.90
1468;DHT22;727;48.892;9.544;2023-01-26T10:43:54;1.50;99.90
1468;DHT22;727;48.892;9.544;2023-01-26T10:46:26;1.50;99.90
1468;DHT22;727;48.892;9.544;2023-01-26T10:48:55;1.60;99.90
1468;DHT22;727;48.892;9.544;2023-01-26T10:51:26;1.60;99.90
1468;DHT22;727;48.892;9.544;2023-01-26T10:54:27;1.60;99.90
1468;DHT22;727;48.892;9.544;2023-01-26T10:56:57;1.60;99.90
1468;DHT22;727;48.892;9.544;2023-01-26T10:59:30;1.70;99.90
1468;DHT22;727;48.892;9.544;2023-01-26T11:02:00;1.60;99.90
1468;DHT22;727;48.892;9.544;2023-01-26T11:04:27;1.60;99.90
1468;DHT22;727;48.892;9.544;2023-01-26T11:06:55;1.60;99.90
1468;DHT22;727;48.892;9.544;2023-01-26T11:09:25;1.60;99.90
1468;DHT22;727;48.892;9.544;2023-01-26T11:12:01;1.60;99.90
1468;DHT22;727;48.892;9.544;2023-01-26T11:14:30;1.60;99.90
1468;DHT22;727;48.892;9.544;2023-01-26T11:17:08;1.60;99.90
1468;DHT22;727;48.892;9.544;2023-01-26T11:20:01;1.70;99.90
1468;DHT22;727;48.892;9.544;2023-01-26T11:22:36;1.70;99.90
1468;DHT22;727;48.892;9.544;2023-01-26T11:25:16;1.70;99.90
1468;DHT22;727;48.892;9.544;2023-01-26T11:27:53;1.70;99.90
1468;DHT22;727;48.892;9.544;2023-01-26T11:30:36;1.80;99.90
1468;DHT22;727;48.892;9.544;2023-01-26T11:33:16;1.80;99.90
1468;DHT22;727;48.892;9.544;2023-01-26T11:35:51;1.90;99.90
1468;DHT22;727;48.892;9.544;2023-01-26T11:38:31;1.90;99.90
1468;DHT22;727;48.892;9.544;2023-01-26T11:41:17;1.90;99.90
1468;DHT22;727;48.892;9.544;2023-01-26T11:47:00;2.00;99.90
1468;DHT22;727;48.892;9.544;2023-01-26T11:50:01;1.90;99.90
1468;DHT22;727;48.892;9.544;2023-01-26T11:52:35;2.00;99.90
1468;DHT22;727;48.892;9.544;2023-01-26T11:55:15;2.00;99.90
1468;DHT22;727;48.892;9.544;2023-01-26T11:57:52;2.00;99.90
1468;DHT22;727;48.892;9.544;2023-01-26T12:00:27;1.90;99.90
1468;DHT22;727;48.892;9.544;2023-01-26T12:03:01;2.00;99.90
1468;DHT22;727;48.892;9.544;2023-01-26T12:05:32;1.90;99.90
1468;DHT22;727;48.892;9.544;2023-01-26T12:08:02;1.90;99.90
1468;DHT22;727;48.892;9.544;2023-01-26T12:10:35;1.90;99.90
1468;DHT22;727;48.892;9.544;2023-01-26T12:13:09;1.80;99.90
1468;DHT22;727;48.892;9.544;2023-01-26T12:15:41;1.90;99.90
1468;DHT22;727;48.892;9.544;2023-01-26T12:18:18;1.80;99.90
1468;DHT22;727;48.892;9.544;2023-01-26T12:20:50;1.80;99.90
1468;DHT22;727;48.892;9.544;2023-01-26T12:23:26;1.80;99.90
1468;DHT22;727;48.892;9.544;2023-01-26T12:25:58;1.90;99.90
1468;DHT22;727;48.892;9.544;2023-01-26T12:28:29;1.80;99.90
1468;DHT22;727;48.892;9.544;2023-01-26T12:31:05;1.80;99.90
1468;DHT22;727;48.892;9.544;2023-01-26T12:33:33;1.80;99.90
1468;DHT22;727;48.892;9.544;2023-01-26T12:36:12;1.70;99.90
1468;DHT22;727;48.892;9.544;2023-01-26T12:38:49;1.70;99.90
1468;DHT22;727;48.892;9.544;2023-01-26T12:41:28;1.70;99.90
1468;DHT22;727;48.892;9.544;2023-01-26T12:44:11;1.70;99.90
1468;DHT22;727;48.892;9.544;2023-01-26T12:46:46;1.70;99.90
1468;DHT22;727;48.892;9.544;2023-01-26T12:49:19;1.70;99.90
1468;DHT22;727;48.892;9.544;2023-01-26T12:51:51;1.70;99.90
1468;DHT22;727;48.892;9.544;2023-01-26T12:54:22;1.70;99.90
1468;DHT22;727;48.892;9.544;2023-01-26T12:56:55;1.70;99.90
1468;DHT22;727;48.892;9.544;2023-01-26T12:59:29;1.70;99.90
1468;DHT22;727;48.892;9.544;2023-01-26T13:02:07;1.70;99.90
1468;DHT22;727;48.892;9.544;2023-01-26T13:04:35;1.60;99.90
1468;DHT22;727;48.892;9.544;2023-01-26T13:07:03;1.60;99.90
1468;DHT22;727;48.892;9.544;2023-01-26T13:10:09;1.60;99.90
1468;DHT22;727;48.892;9.544;2023-01-26T13:12:47;1.60;99.90
1468;DHT22;727;48.892;9.544;2023-01-26T13:15:16;1.70;99.90
1468;DHT22;727;48.892;9.544;2023-01-26T13:17:55;1.70;99.90
1468;DHT22;727;48.892;9.544;2023-01-26T13:20:41;1.70;99.90
1468;DHT22;727;48.892;9.544;2023-01-26T13:23:35;1.70;99.90
1468;DHT22;727;48.892;9.544;2023-01-26T13:26:19;1.70;99.90
1468;DHT22;727;48.892;9.544;2023-01-26T13:28:47;1.70;99.90
1468;DHT22;727;48.892;9.544;2023-01-26T13:31:31;1.60;99.90
1468;DHT22;727;48.892;9.544;2023-01-26T13:34:06;1.60;99.90
1468;DHT22;727;48.892;9.544;2023-01-26T13:36:35;1.60;99.90
1468;DHT22;727;48.892;9.544;2023-01-26T13:39:10;1.60;99.90
1468;DHT22;727;48.892;9.544;2023-01-26T13:41:43;1.60;99.90
1468;DHT22;727;48.892;9.544;2023-01-26T13:44:15;1.70;99.90
1468;DHT22;727;48.892;9.544;2023-01-26T13:46:46;1.70;99.90
1468;DHT22;727;48.892;9.544;2023-01-26T13:49:25;1.70;99.90
1468;DHT22;727;48.892;9.544;2023-01-26T13:51:52;1.60;99.90
1468;DHT22;727;48.892;9.544;2023-01-26T13:54:19;1.60;99.90
1468;DHT22;727;48.892;9.544;2023-01-26T13:57:02;1.60;99.90
1468;DHT22;727;48.892;9.544;2023-01-26T13:59:29;1.70;99.90
1468;DHT22;727;48.892;9.544;2023-01-26T14:01:58;1.60;99.90
1468;DHT22;727;48.892;9.544;2023-01-26T14:04:27;1.60;99.90
1468;DHT22;727;48.892;9.544;2023-01-26T14:06:56;1.60;99.90
1468;DHT22;727;48.892;9.544;2023-01-26T14:09:26;1.60;99.90
1468;DHT22;727;48.892;9.544;2023-01-26T14:11:57;1.60;99.90
1468;DHT22;727;48.892;9.544;2023-01-26T14:14:25;1.60;99.90
1468;DHT22;727;48.892;9.544;2023-01-26T14:16:53;1.70;99.90
1468;DHT22;727;48.892;9.544;2023-01-26T14:19:22;1.60;99.90
1468;DHT22;727;48.892;9.544;2023-01-26T14:21:53;1.60;99.90
1468;DHT22;727;48.892;9.544;2023-01-26T14:24:25;1.50;99.90
1468;DHT22;727;48.892;9.544;2023-01-26T14:26:52;1.50;99.90
1468;DHT22;727;48.892;9.544;2023-01-26T14:29:21;1.50;99.90
1468;DHT22;727;48.892;9.544;2023-01-26T14:31:48;1.50;99.90
1468;DHT22;727;48.892;9.544;2023-01-26T14:34:19;1.40;99.90
1468;DHT22;727;48.892;9.544;2023-01-26T14:36:47;1.40;99.90
1468;DHT22;727;48.892;9.544;2023-01-26T14:39:18;1.40;99.90
1468;DHT22;727;48.892;9.544;2023-01-26T14:41:47;1.40;99.90
1468;DHT22;727;48.892;9.544;2023-01-26T14:44:14;1.40;99.90
1468;DHT22;727;48.892;9.544;2023-01-26T14:46:52;1.30;99.90
1468;DHT22;727;48.892;9.544;2023-01-26T14:49:23;1.30;99.90
1468;DHT22;727;48.892;9.544;2023-01-26T14:51:55;1.40;99.90
1468;DHT22;727;48.892;9.544;2023-01-26T14:54:27;1.30;99.90
1468;DHT22;727;48.892;9.544;2023-01-26T14:56:55;1.40;99.90
1468;DHT22;727;48.892;9.544;2023-01-26T14:59:27;1.30;99.90
1468;DHT22;727;48.892;9.544;2023-01-26T15:02:13;1.30;99.90
1468;DHT22;727;48.892;9.544;2023-01-26T15:04:43;1.30;99.90
1468;DHT22;727;48.892;9.544;2023-01-26T15:07:29;1.30;99.90
1468;DHT22;727;48.892;9.544;2023-01-26T15:09:59;1.30;99.90
1468;DHT22;727;48.892;9.544;2023-01-26T15:12:26;1.30;99.90
1468;DHT22;727;48.892;9.544;2023-01-26T15:14:55;1.30;99.90
1468;DHT22;727;48.892;9.544;2023-01-26T15:17:30;1.20;99.90
1468;DHT22;727;48.892;9.544;2023-01-26T15:20:02;1.20;99.90
1468;DHT22;727;48.892;9.544;2023-01-26T15:22:29;1.20;99.90
1468;DHT22;727;48.892;9.544;2023-01-26T15:25:03;1.20;99.90
1468;DHT22;727;48.892;9.544;2023-01-26T15:27:35;1.20;99.90
1468;DHT22;727;48.892;9.544;2023-01-26T15:30:03;1.10;99.90
1468;DHT22;727;48.892;9.544;2023-01-26T15:32:37;1.10;99.90
1468;DHT22;727;48.892;9.544;2023-01-26T15:35:20;1.10;99.90
1468;DHT22;727;48.892;9.544;2023-01-26T15:37:47;1.00;99.90
1468;DHT22;727;48.892;9.544;2023-01-26T15:40:16;1.00;99.90
1468;DHT22;727;48.892;9.544;2023-01-26T15:42:43;1.10;99.90
1468;DHT22;727;48.892;9.544;2023-01-26T15:45:20;1.10;99.90
1468;DHT22;727;48.892;9.544;2023-01-26T15:47:48;1.10;99.90
1468;DHT22;727;48.892;9.544;2023-01-26T15:50:16;1.00;99.90
1468;DHT22;727;48.892;9.544;2023-01-26T15:52:43;1.00;99.90
1468;DHT22;727;48.892;9.544;2023-01-26T15:55:20;1.00;99.90
1468;DHT22;727;48.892;9.544;2023-01-26T15:57:48;1.00;99.90
1468;DHT22;727;48.892;9.544;2023-01-26T16:00:15;1.10;99.90
1468;DHT22;727;48.892;9.544;2023-01-26T16:02:42;1.10;99.90
1468;DHT22;727;48.892;9.544;2023-01-26T16:05:13;1.10;99.90
1468;DHT22;727;48.892;9.544;2023-01-26T16:07:41;1.10;99.90
1468;DHT22;727;48.892;9.544;2023-01-26T16:10:08;1.00;99.90
1468;DHT22;727;48.892;9.544;2023-01-26T16:12:37;1.10;99.90
1468;DHT22;727;48.892;9.544;2023-01-26T16:15:20;1.00;99.90
1468;DHT22;727;48.892;9.544;2023-01-26T16:17:48;1.00;99.90
1468;DHT22;727;48.892;9.544;2023-01-26T16:20:14;1.00;99.90
1468;DHT22;727;48.892;9.544;2023-01-26T16:22:41;1.00;99.90
1468;DHT22;727;48.892;9.544;2023-01-26T16:25:18;1.00;99.90
1468;DHT22;727;48.892;9.544;2023-01-26T16:27:48;1.00;99.90
1468;DHT22;727;48.892;9.544;2023-01-26T16:30:15;1.00;99.90
1468;DHT22;727;48.892;9.544;2023-01-26T16:32:43;1.00;99.90
1468;DHT22;727;48.892;9.544;2023-01-26T16:35:11;1.00;99.90
1468;DHT22;727;48.892;9.544;2023-01-26T16:37:38;1.00;99.90
1468;DHT22;727;48.892;9.544;2023-01-26T16:40:06;1.00;99.90
1468;DHT22;727;48.892;9.544;2023-01-26T16:42:33;1.00;99.90
1468;DHT22;727;48.892;9.544;2023-01-26T16:45:03;1.00;99.90
1468;DHT22;727;48.892;9.544;2023-01-26T16:47:30;1.00;99.90
1468;DHT22;727;48.892;9.544;2023-01-26T16:49:58;1.00;99.90
1468;DHT22;727;48.892;9.544;2023-01-26T16:52:24;1.00;99.90
1468;DHT22;727;48.892;9.544;2023-01-26T16:54:51;1.00;99.90
1468;DHT22;727;48.892;9.544;2023-01-26T16:57:18;1.00;99.90
1468;DHT22;727;48.892;9.544;2023-01-26T16:59:45;1.00;99.90
1468;DHT22;727;48.892;9.544;2023-01-26T17:02:21;1.00;99.90
1468;DHT22;727;48.892;9.544;2023-01-26T17:04:49;1.00;99.90